Time;durP1;ratioP1;P1;durP2;ratioP2;P2;SDS_P1;SDS_P2;PMS_P1;PMS_P2;Temp;Humidity;BMP_temperature;BMP_pressure;BME280_temperature;BME280_humidity;BME280_pressure;Samples;Min_cycle;Max_cycle;Signal;HPM_P1;HPM_P2
2022/05/16 00:01:08;;;;;;;8.27;3.10;;;16.60;99.90;;;;;;4958730;28;20078;-47
2022/05/16 00:03:34;;;;;;;12.48;3.30;;;16.60;99.90;;;;;;4976233;28;20030;-46
2022/05/16 00:06:00;;;;;;;10.38;3.22;;;16.60;99.90;;;;;;4976266;28;20487;-46
2022/05/16 00:08:26;;;;;;;12.70;3.50;;;16.60;99.90;;;;;;4976255;28;20081;-48
2022/05/16 00:10:52;;;;;;;9.25;3.28;;;16.50;99.90;;;;;;4942569;28;20047;-50
2022/05/16 00:13:18;;;;;;;9.95;3.50;;;16.40;99.90;;;;;;4975844;28;20042;-46
2022/05/16 00:15:43;;;;;;;12.00;3.25;;;16.40;99.90;;;;;;4975914;28;20096;-47
2022/05/16 00:18:09;;;;;;;9.90;2.95;;;16.50;99.90;;;;;;4976121;28;20034;-47
2022/05/16 00:20:35;;;;;;;11.00;3.47;;;16.40;99.90;;;;;;4958728;28;20536;-49
2022/05/16 00:23:01;;;;;;;11.55;3.58;;;16.50;99.90;;;;;;4975684;28;20035;-49
2022/05/16 00:25:27;;;;;;;13.93;3.70;;;16.40;99.90;;;;;;4976048;28;20031;-47
2022/05/16 00:27:53;;;;;;;10.30;3.53;;;16.40;99.90;;;;;;4975413;28;20061;-49
2022/05/16 00:30:20;;;;;;;12.32;3.70;;;16.30;99.90;;;;;;4975608;28;20042;-47
2022/05/16 00:32:48;;;;;;;12.70;3.83;;;16.30;99.90;;;;;;4975609;28;20421;-46
2022/05/16 00:35:18;;;;;;;13.60;3.85;;;16.20;99.90;;;;;;4958313;28;20042;-49
2022/05/16 00:37:43;;;;;;;9.40;3.38;;;16.20;99.90;;;;;;4975411;28;20050;-46
2022/05/16 00:40:11;;;;;;;10.13;3.55;;;16.30;99.90;;;;;;4975873;28;20039;-48
2022/05/16 00:42:37;;;;;;;11.88;3.08;;;16.10;99.90;;;;;;4975334;28;20046;-46
2022/05/16 00:45:04;;;;;;;8.77;3.28;;;16.20;99.90;;;;;;4975473;28;20050;-48
2022/05/16 00:47:30;;;;;;;10.32;3.47;;;16.10;99.90;;;;;;4975573;28;20118;-47
2022/05/16 00:49:56;;;;;;;12.23;3.55;;;16.20;99.90;;;;;;4974892;28;20518;-48
2022/05/16 00:52:33;;;;;;;11.18;3.20;;;16.10;99.90;;;;;;4975144;28;20061;-47
2022/05/16 00:55:33;;;;;;;13.63;3.30;;;16.10;99.90;;;;;;4975261;28;20050;-46
2022/05/16 00:58:03;;;;;;;8.90;3.40;;;16.00;99.90;;;;;;4974979;28;20038;-46
2022/05/16 01:00:35;;;;;;;9.55;3.50;;;16.00;99.90;;;;;;4975124;28;20454;-48
2022/05/16 01:05:51;;;;;;;10.40;3.40;;;15.90;99.90;;;;;;4974933;28;20082;-46
2022/05/16 01:08:22;;;;;;;9.05;3.55;;;15.80;99.90;;;;;;4975159;28;20042;-46
2022/05/16 01:10:48;;;;;;;7.78;3.00;;;15.80;99.90;;;;;;4974808;28;20139;-46
2022/05/16 01:13:14;;;;;;;10.88;3.65;;;15.70;99.90;;;;;;4974681;28;20045;-44
2022/05/16 01:15:44;;;;;;;13.80;3.58;;;15.70;99.90;;;;;;4975045;28;20439;-47
2022/05/16 01:18:13;;;;;;;10.02;3.35;;;15.70;99.90;;;;;;4975186;28;20043;-48
2022/05/16 01:20:51;;;;;;;11.45;3.47;;;15.70;99.90;;;;;;4974602;28;20071;-46
2022/05/16 01:23:20;;;;;;;11.05;3.65;;;15.70;99.90;;;;;;4974579;28;20034;-47
2022/05/16 01:25:45;;;;;;;9.73;3.15;;;15.70;99.90;;;;;;4974631;28;20043;-45
2022/05/16 01:28:17;;;;;;;11.05;3.53;;;15.70;99.90;;;;;;4974957;28;20395;-47
2022/05/16 01:30:46;;;;;;;13.70;3.47;;;15.60;99.90;;;;;;4974752;28;20594;-50
2022/05/16 01:33:13;;;;;;;10.00;3.47;;;15.60;99.90;;;;;;4974646;28;20101;-47
2022/05/16 01:35:39;;;;;;;11.48;3.88;;;15.60;99.90;;;;;;4974519;28;20043;-47
2022/05/16 01:38:22;;;;;;;10.02;3.40;;;15.50;99.90;;;;;;4974502;28;20374;-49
2022/05/16 01:41:00;;;;;;;8.35;3.67;;;15.40;99.90;;;;;;4974365;28;20050;-47
2022/05/16 01:43:29;;;;;;;12.27;3.58;;;15.40;99.90;;;;;;4974604;28;20478;-48
2022/05/16 01:45:56;;;;;;;13.80;4.10;;;15.30;99.90;;;;;;4956823;28;20046;-48
2022/05/16 01:48:22;;;;;;;10.45;3.45;;;15.30;99.90;;;;;;4974309;28;20077;-48
2022/05/16 01:50:49;;;;;;;10.52;4.00;;;15.30;99.90;;;;;;4974513;28;20046;-49
2022/05/16 01:53:15;;;;;;;12.73;3.60;;;15.40;99.90;;;;;;4973610;28;20055;-46
2022/05/16 01:55:40;;;;;;;11.43;3.92;;;15.30;99.90;;;;;;4974035;28;20505;-49
2022/05/16 01:58:06;;;;;;;14.52;4.03;;;15.30;99.90;;;;;;4974284;28;20034;-48
2022/05/16 02:00:33;;;;;;;8.77;3.58;;;15.20;99.90;;;;;;4973845;28;20042;-47
2022/05/16 02:03:05;;;;;;;12.48;4.00;;;15.30;99.90;;;;;;4955884;28;20559;-47
2022/05/16 02:05:31;;;;;;;11.95;3.47;;;15.20;99.90;;;;;;4974242;28;20434;-48
2022/05/16 02:07:57;;;;;;;12.50;3.63;;;15.10;99.90;;;;;;4973991;28;20097;-48
2022/05/16 02:10:25;;;;;;;8.70;3.28;;;15.10;99.90;;;;;;4973855;28;20047;-46
2022/05/16 02:12:52;;;;;;;11.73;3.80;;;14.90;99.90;;;;;;4974033;28;20562;-49
2022/05/16 02:15:21;;;;;;;11.73;3.58;;;15.00;99.90;;;;;;4973600;28;20075;-45
2022/05/16 02:17:47;;;;;;;10.00;3.20;;;15.10;99.90;;;;;;4973951;28;20039;-47
2022/05/16 02:20:14;;;;;;;10.35;3.75;;;15.00;99.90;;;;;;4973357;28;20439;-45
2022/05/16 02:25:24;;;;;;;;;;;14.90;99.90;;;;;;4974070;28;20077;-47
2022/05/16 02:27:51;;;;;;;12.20;3.67;;;14.80;99.90;;;;;;4973609;28;20390;-48
2022/05/16 02:30:18;;;;;;;10.52;3.45;;;14.90;99.90;;;;;;4973482;28;20105;-45
2022/05/16 02:32:43;;;;;;;9.00;3.13;;;14.90;99.90;;;;;;4973684;28;20039;-45
2022/05/16 02:35:09;;;;;;;11.65;3.60;;;14.80;99.90;;;;;;4973044;28;20043;-49
2022/05/16 02:37:36;;;;;;;13.48;3.85;;;14.80;99.90;;;;;;4973514;28;20119;-46
2022/05/16 02:40:02;;;;;;;13.43;4.05;;;14.80;99.90;;;;;;4972990;28;20134;-49
2022/05/16 02:42:28;;;;;;;8.43;3.28;;;14.70;99.90;;;;;;4973532;28;20126;-49
2022/05/16 02:44:53;;;;;;;10.07;3.50;;;14.70;99.90;;;;;;4973227;28;20130;-49
2022/05/16 02:47:21;;;;;;;11.55;3.30;;;14.70;99.90;;;;;;4971908;28;20035;-48
2022/05/16 02:49:47;;;;;;;14.07;3.60;;;14.70;99.90;;;;;;4973201;28;20479;-46
2022/05/16 02:52:13;;;;;;;12.45;3.80;;;14.70;99.90;;;;;;4972948;28;20055;-47
2022/05/16 02:54:39;;;;;;;12.63;3.67;;;14.60;99.90;;;;;;4972894;28;20052;-49
2022/05/16 02:57:06;;;;;;;10.32;3.40;;;14.70;99.90;;;;;;4973184;28;20050;-47
2022/05/16 02:59:34;;;;;;;9.32;3.33;;;14.60;99.90;;;;;;4972976;28;20035;-50
2022/05/16 03:02:01;;;;;;;14.13;3.80;;;14.50;99.90;;;;;;4973264;28;20211;-47
2022/05/16 03:04:27;;;;;;;11.98;3.60;;;14.50;99.90;;;;;;4972664;28;20035;-49
2022/05/16 03:06:54;;;;;;;11.18;3.65;;;14.50;99.90;;;;;;4973058;28;20042;-48
2022/05/16 03:09:21;;;;;;;9.10;3.38;;;14.50;99.90;;;;;;4972989;28;20526;-48
2022/05/16 03:11:46;;;;;;;12.63;3.85;;;14.50;99.90;;;;;;4954086;28;20164;-45
2022/05/16 03:14:12;;;;;;;9.85;3.50;;;14.50;99.90;;;;;;4973053;28;20062;-47
2022/05/16 03:16:38;;;;;;;10.02;3.88;;;14.40;99.90;;;;;;4972893;28;20050;-46
2022/05/16 03:19:05;;;;;;;8.80;3.50;;;14.40;99.90;;;;;;4953768;28;20046;-46
2022/05/16 03:21:31;;;;;;;13.52;3.95;;;14.40;99.90;;;;;;4972831;28;20042;-48
2022/05/16 03:23:57;;;;;;;10.80;3.58;;;14.40;99.90;;;;;;4972427;28;20046;-45
2022/05/16 03:26:24;;;;;;;9.32;3.67;;;14.40;99.90;;;;;;4972341;28;20553;-48
2022/05/16 03:28:50;;;;;;;11.07;3.50;;;14.40;99.90;;;;;;4972712;28;20042;-48
2022/05/16 03:31:15;;;;;;;15.60;4.10;;;14.30;99.90;;;;;;4972370;28;20082;-46
2022/05/16 03:33:41;;;;;;;12.57;3.72;;;14.30;99.90;;;;;;4972277;28;20500;-47
2022/05/16 03:36:07;;;;;;;11.77;3.42;;;14.30;99.90;;;;;;4972180;28;20039;-44
2022/05/16 03:41:18;;;;;;;11.45;3.72;;;14.30;99.90;;;;;;4972300;28;20041;-47
2022/05/16 03:43:44;;;;;;;13.30;3.63;;;14.20;99.90;;;;;;4967837;28;20063;-45
2022/05/16 03:46:10;;;;;;;11.65;4.10;;;14.20;99.90;;;;;;4953125;28;21395;-48
2022/05/16 03:48:36;;;;;;;9.55;3.40;;;14.20;99.90;;;;;;4970930;28;20037;-48
2022/05/16 03:51:03;;;;;;;9.75;3.65;;;14.20;99.90;;;;;;4970954;28;20462;-48
2022/05/16 03:53:29;;;;;;;12.45;3.65;;;14.10;99.90;;;;;;4971551;28;20117;-50
2022/05/16 03:55:55;;;;;;;10.30;3.30;;;14.20;99.90;;;;;;4972207;28;20035;-50
2022/05/16 03:58:21;;;;;;;8.15;3.75;;;14.20;99.90;;;;;;4972260;28;20043;-51
2022/05/16 04:00:48;;;;;;;10.95;3.70;;;14.10;99.90;;;;;;4972343;28;20117;-50
2022/05/16 04:03:14;;;;;;;13.10;3.90;;;14.10;99.90;;;;;;4972282;28;20122;-45
2022/05/16 04:05:40;;;;;;;12.73;3.58;;;14.10;99.90;;;;;;4972187;28;20042;-45
2022/05/16 04:08:06;;;;;;;14.00;3.80;;;14.10;99.90;;;;;;4972014;28;20118;-46
2022/05/16 04:10:32;;;;;;;13.18;3.45;;;14.00;99.90;;;;;;4970779;28;20081;-45
2022/05/16 04:12:58;;;;;;;12.57;3.70;;;14.00;99.90;;;;;;4972301;28;20444;-48
2022/05/16 04:15:25;;;;;;;15.13;3.50;;;14.10;99.90;;;;;;4971876;28;20042;-47
2022/05/16 04:17:51;;;;;;;11.68;3.80;;;14.20;99.90;;;;;;4972130;28;20046;-47
2022/05/16 04:20:19;;;;;;;12.77;3.67;;;14.00;99.90;;;;;;4972120;28;20046;-50
2022/05/16 04:22:45;;;;;;;14.40;3.95;;;14.00;99.90;;;;;;4971523;28;20058;-49
2022/05/16 04:25:15;;;;;;;11.13;3.33;;;14.10;99.90;;;;;;4971305;28;20085;-45
2022/05/16 04:27:41;;;;;;;12.90;3.70;;;14.00;99.90;;;;;;4971394;28;20093;-47
2022/05/16 04:30:08;;;;;;;11.10;3.67;;;14.00;99.90;;;;;;4971123;28;20042;-46
2022/05/16 04:32:34;;;;;;;13.75;3.95;;;14.10;99.90;;;;;;4953112;28;20043;-48
2022/05/16 04:35:00;;;;;;;12.73;3.58;;;14.00;99.90;;;;;;4971054;28;20071;-48
2022/05/16 04:37:32;;;;;;;12.20;3.65;;;14.00;99.90;;;;;;4954908;28;20038;-47
2022/05/16 04:40:01;;;;;;;10.60;3.58;;;14.00;99.90;;;;;;4973547;28;20141;-50
2022/05/16 04:42:43;;;;;;;11.93;3.72;;;14.00;99.90;;;;;;4974555;28;20037;-49
2022/05/16 04:45:12;;;;;;;13.73;4.15;;;14.00;99.90;;;;;;4974460;28;20058;-51
2022/05/16 04:47:38;;;;;;;11.60;3.60;;;14.00;99.90;;;;;;4973527;28;20117;-47
2022/05/16 04:50:05;;;;;;;13.88;3.40;;;14.10;99.90;;;;;;4974267;28;20053;-49
2022/05/16 04:52:32;;;;;;;13.20;3.67;;;14.10;99.90;;;;;;4973024;28;20542;-48
2022/05/16 04:54:59;;;;;;;13.65;3.35;;;14.10;99.90;;;;;;4974072;28;20042;-48
2022/05/16 04:57:25;;;;;;;11.20;3.38;;;14.20;99.90;;;;;;4973828;28;20042;-49
2022/05/16 04:59:51;;;;;;;12.05;3.63;;;14.20;99.90;;;;;;4974195;28;20043;-46
2022/05/16 05:02:17;;;;;;;13.02;4.07;;;14.20;99.90;;;;;;4956816;28;20045;-45
2022/05/16 05:04:45;;;;;;;11.23;3.58;;;14.20;99.90;;;;;;4974404;28;20043;-45
2022/05/16 05:07:12;;;;;;;11.93;3.65;;;14.30;99.90;;;;;;4974394;28;20394;-47
2022/05/16 05:15:11;;;;;;;8.77;2.97;;;14.40;99.90;;;;;;4974145;28;20042;-46
2022/05/16 05:17:37;;;;;;;8.93;3.17;;;14.40;99.90;;;;;;4974084;28;20498;-47
2022/05/16 05:20:03;;;;;;;13.73;4.10;;;14.50;99.90;;;;;;4973911;28;20043;-45
2022/05/16 05:22:29;;;;;;;13.13;3.60;;;14.50;99.90;;;;;;4973950;28;20034;-48
2022/05/16 05:24:55;;;;;;;9.45;3.75;;;14.60;99.90;;;;;;4973429;28;20031;-46
2022/05/16 05:27:21;;;;;;;12.80;3.75;;;14.60;99.90;;;;;;4973589;28;20121;-48
2022/05/16 05:29:48;;;;;;;12.48;3.80;;;14.70;99.90;;;;;;4956489;28;20130;-50
2022/05/16 05:32:15;;;;;;;9.75;3.55;;;14.80;99.90;;;;;;4973655;28;20043;-45
2022/05/16 05:34:41;;;;;;;12.43;3.75;;;14.80;99.90;;;;;;4973783;28;20031;-47
2022/05/16 05:37:07;;;;;;;12.82;3.42;;;14.90;99.90;;;;;;4973427;28;20046;-47
2022/05/16 05:39:34;;;;;;;10.98;3.55;;;14.90;99.90;;;;;;4974108;28;20045;-48
2022/05/16 05:41:59;;;;;;;11.85;3.92;;;15.00;99.90;;;;;;4974648;28;20034;-49
2022/05/16 05:44:25;;;;;;;14.13;3.60;;;15.10;99.90;;;;;;4974533;28;20533;-46
2022/05/16 05:46:51;;;;;;;11.30;3.60;;;15.10;99.90;;;;;;4957186;28;20501;-46
2022/05/16 05:49:17;;;;;;;14.88;3.70;;;15.20;99.90;;;;;;4973835;28;20395;-47
2022/05/16 05:51:43;;;;;;;9.80;3.83;;;15.20;99.90;;;;;;4974304;28;20066;-47
2022/05/16 05:54:09;;;;;;;12.32;3.95;;;15.20;99.90;;;;;;4973896;28;20137;-48
2022/05/16 05:56:35;;;;;;;11.60;3.60;;;15.30;99.90;;;;;;4974026;28;20042;-48
2022/05/16 05:59:01;;;;;;;10.10;3.28;;;15.30;99.90;;;;;;4973899;28;20043;-46
2022/05/16 06:01:27;;;;;;;9.95;3.10;;;15.40;99.90;;;;;;4974104;28;20041;-45
2022/05/16 06:03:53;;;;;;;13.90;3.83;;;15.50;99.90;;;;;;4974195;28;20034;-46
2022/05/16 06:06:19;;;;;;;12.07;3.65;;;15.60;99.90;;;;;;4974250;28;20565;-46
2022/05/16 06:08:45;;;;;;;15.60;4.25;;;15.60;99.90;;;;;;4973868;28;20121;-45
2022/05/16 06:11:11;;;;;;;12.20;3.22;;;15.70;99.90;;;;;;4973656;28;20130;-47
2022/05/16 06:13:38;;;;;;;10.40;3.40;;;15.70;99.90;;;;;;4973965;28;20031;-46
2022/05/16 06:16:05;;;;;;;12.13;3.50;;;15.80;99.90;;;;;;4973873;28;20057;-48
2022/05/16 06:18:31;;;;;;;15.80;3.97;;;15.80;99.90;;;;;;4973538;28;20038;-51
2022/05/16 06:20:57;;;;;;;13.93;4.07;;;15.80;99.90;;;;;;4973481;28;20538;-47
2022/05/16 06:23:22;;;;;;;11.23;3.50;;;15.90;99.90;;;;;;4971817;28;20126;-48
2022/05/16 06:25:48;;;;;;;9.82;3.40;;;16.00;99.90;;;;;;4973544;28;20043;-47
2022/05/16 06:28:20;;;;;;;12.10;3.60;;;16.10;99.90;;;;;;4973568;28;20043;-49
2022/05/16 06:30:48;;;;;;;11.27;3.40;;;16.20;99.90;;;;;;4973673;28;20073;-47
2022/05/16 06:33:15;;;;;;;11.23;3.38;;;16.30;99.90;;;;;;4973355;28;20393;-49
2022/05/16 06:35:42;;;;;;;9.70;3.47;;;16.50;99.90;;;;;;4973540;28;20039;-48
2022/05/16 06:38:12;;;;;;;13.63;3.42;;;16.50;99.90;;;;;;4973458;28;20382;-45
2022/05/16 06:40:39;;;;;;;13.18;3.83;;;16.50;99.90;;;;;;4954686;28;20047;-45
2022/05/16 06:43:06;;;;;;;11.95;3.70;;;16.60;99.90;;;;;;4973421;28;20479;-48
2022/05/16 06:45:32;;;;;;;11.82;3.30;;;16.80;99.90;;;;;;4973008;28;20104;-49
2022/05/16 06:47:58;;;;;;;16.90;3.75;;;16.80;99.90;;;;;;4973254;28;20042;-47
2022/05/16 06:50:23;;;;;;;11.20;3.40;;;16.90;99.90;;;;;;4972844;28;20047;-47
2022/05/16 06:52:49;;;;;;;12.23;3.30;;;17.00;99.90;;;;;;4972834;28;20062;-46
2022/05/16 06:55:15;;;;;;;13.52;3.40;;;17.00;99.90;;;;;;4972800;28;20070;-45
2022/05/16 06:57:41;;;;;;;10.48;3.53;;;17.10;99.90;;;;;;4955313;28;20390;-47
2022/05/16 07:00:08;;;;;;;9.77;3.20;;;17.20;99.90;;;;;;4972580;28;20428;-48
2022/05/16 07:02:34;;;;;;;11.85;3.50;;;17.30;99.90;;;;;;4970386;28;20046;-45
2022/05/16 07:05:00;;;;;;;11.32;3.70;;;17.40;99.90;;;;;;4955424;28;20041;-49
2022/05/16 07:07:26;;;;;;;11.68;3.33;;;17.50;99.90;;;;;;4969970;28;20066;-48
2022/05/16 07:09:52;;;;;;;9.25;3.33;;;17.50;99.90;;;;;;4965033;28;20181;-50
2022/05/16 07:12:18;;;;;;;14.25;3.63;;;17.70;99.90;;;;;;4966818;28;20081;-50
2022/05/16 07:14:45;;;;;;;13.45;3.50;;;17.70;99.90;;;;;;4966711;28;20080;-47
2022/05/16 07:17:11;;;;;;;11.32;3.30;;;17.90;99.90;;;;;;4950037;28;20055;-48
2022/05/16 07:19:37;;;;;;;14.32;3.50;;;18.00;99.90;;;;;;4966591;28;20046;-49
2022/05/16 07:22:08;;;;;;;10.50;3.28;;;18.10;99.90;;;;;;4967956;28;20035;-48
2022/05/16 07:24:34;;;;;;;13.70;2.95;;;18.20;99.90;;;;;;4966003;28;20042;-48
2022/05/16 07:29:44;;;;;;;11.68;2.92;;;18.40;99.90;;;;;;4965859;28;20046;-46
2022/05/16 07:32:11;;;;;;;9.18;3.33;;;18.50;99.90;;;;;;4967809;28;20123;-48
2022/05/16 07:34:38;;;;;;;13.27;3.42;;;18.50;99.90;;;;;;4966055;28;20070;-51
2022/05/16 07:37:04;;;;;;;10.73;3.03;;;18.70;99.90;;;;;;4966333;28;20043;-48
2022/05/16 07:39:30;;;;;;;12.13;3.20;;;18.80;99.90;;;;;;4965853;28;20042;-48
2022/05/16 07:41:56;;;;;;;12.40;2.92;;;18.90;99.90;;;;;;4965750;28;20683;-46
2022/05/16 07:44:22;;;;;;;12.55;3.10;;;19.00;99.90;;;;;;4966345;28;20399;-46
2022/05/16 07:46:47;;;;;;;13.05;3.40;;;19.00;99.90;;;;;;4965423;28;20118;-46
2022/05/16 07:49:13;;;;;;;9.05;3.13;;;19.00;99.90;;;;;;4966947;28;20061;-45
2022/05/16 07:51:41;;;;;;;11.75;3.22;;;19.10;99.90;;;;;;4965103;28;20043;-48
2022/05/16 07:54:08;;;;;;;13.38;3.08;;;19.30;99.90;;;;;;4964771;28;20184;-47
2022/05/16 07:56:34;;;;;;;7.40;3.10;;;19.40;99.90;;;;;;4966428;28;20121;-47
2022/05/16 07:59:02;;;;;;;10.57;3.42;;;19.50;99.90;;;;;;4953631;28;20118;-45
2022/05/16 08:01:28;;;;;;;9.93;3.28;;;19.60;99.90;;;;;;4949803;28;20035;-48
2022/05/16 08:03:54;;;;;;;9.18;3.00;;;19.80;99.90;;;;;;4950515;28;20552;-47
2022/05/16 08:06:19;;;;;;;9.65;2.90;;;20.00;99.90;;;;;;4966379;28;20121;-49
2022/05/16 08:11:29;;;;;;;11.95;3.40;;;20.20;99.90;;;;;;4965084;28;20515;-50
2022/05/16 08:13:55;;;;;;;10.18;3.22;;;20.40;99.90;;;;;;4967786;28;20031;-46
2022/05/16 08:16:20;;;;;;;9.40;2.92;;;20.50;99.90;;;;;;4968385;28;20132;-47
2022/05/16 08:18:46;;;;;;;12.18;3.33;;;20.70;99.90;;;;;;4953897;28;20085;-47
2022/05/16 08:21:12;;;;;;;8.07;3.05;;;20.70;99.90;;;;;;4969926;28;20043;-46
2022/05/16 08:23:39;;;;;;;11.93;3.03;;;20.90;99.90;;;;;;4970361;28;20045;-48
2022/05/16 08:26:05;;;;;;;12.23;2.90;;;21.00;99.90;;;;;;4970046;28;20105;-48
2022/05/16 08:28:32;;;;;;;11.30;3.17;;;21.20;99.90;;;;;;4969199;28;20470;-49
2022/05/16 08:30:57;;;;;;;17.30;3.40;;;21.20;99.90;;;;;;4968339;28;20047;-48
2022/05/16 08:33:24;;;;;;;11.82;3.10;;;21.40;99.90;;;;;;4971680;28;20045;-48
2022/05/16 08:41:28;;;;;;;10.50;3.05;;;21.80;99.90;;;;;;4969275;28;20589;-50
2022/05/16 08:44:36;;;;;;;9.95;3.15;;;21.80;99.90;;;;;;4970451;28;20042;-48
2022/05/16 08:47:05;;;;;;;9.20;2.72;;;21.90;99.90;;;;;;4968791;28;20039;-48
2022/05/16 08:49:37;;;;;;;10.27;2.72;;;21.80;99.90;;;;;;4972057;28;20050;-49
2022/05/16 08:52:39;;;;;;;8.00;2.83;;;21.90;99.90;;;;;;4973188;28;20059;-48
2022/05/16 08:55:32;;;;;;;17.08;3.35;;;22.00;99.90;;;;;;4966913;28;20475;-47
2022/05/16 08:58:20;;;;;;;10.68;2.80;;;22.10;99.90;;;;;;4968225;28;20200;-48
2022/05/16 09:01:02;;;;;;;6.30;2.72;;;22.10;99.70;;;;;;4955391;28;20085;-49
2022/05/16 09:03:28;;;;;;;9.05;2.90;;;22.20;99.90;;;;;;4973284;28;21475;-50
2022/05/16 09:06:04;;;;;;;13.93;3.15;;;22.30;99.70;;;;;;4973523;28;20118;-49
2022/05/16 09:08:49;;;;;;;9.82;3.10;;;22.40;99.90;;;;;;4973751;28;20043;-46
2022/05/16 09:11:50;;;;;;;16.42;3.20;;;22.50;99.50;;;;;;4973271;28;20109;-48
2022/05/16 09:14:55;;;;;;;12.98;4.10;;;22.50;99.90;;;;;;4972390;28;20039;-46
2022/05/16 09:17:43;;;;;;;12.60;3.72;;;22.50;99.70;;;;;;4971918;28;20059;-47
2022/05/16 09:20:26;;;;;;;12.07;4.10;;;22.60;99.90;;;;;;4973108;28;20043;-49
2022/05/16 09:22:57;;;;;;;10.55;3.75;;;22.50;99.90;;;;;;4972483;28;20545;-49
2022/05/16 09:25:31;;;;;;;11.20;3.30;;;22.50;99.70;;;;;;4970917;28;20070;-49
2022/05/16 09:30:48;;;;;;;9.07;3.85;;;22.90;99.90;;;;;;4969545;28;20384;-46
2022/05/16 09:33:24;;;;;;;9.95;3.60;;;22.90;99.80;;;;;;4973534;28;20574;-48
2022/05/16 09:36:06;;;;;;;11.35;3.63;;;22.70;99.90;;;;;;4972519;28;20463;-48
2022/05/16 09:38:32;;;;;;;10.63;3.72;;;22.60;99.70;;;;;;4973188;28;20483;-47
2022/05/16 09:41:08;;;;;;;11.52;3.22;;;22.40;99.90;;;;;;4955747;28;20038;-46
2022/05/16 09:43:40;;;;;;;15.10;3.78;;;22.40;99.90;;;;;;4973635;28;20058;-46
2022/05/16 09:46:32;;;;;;;10.60;3.30;;;22.20;99.90;;;;;;4954568;28;20039;-48
2022/05/16 09:49:22;;;;;;;10.65;3.13;;;22.10;99.90;;;;;;4971128;28;20047;-48
2022/05/16 09:51:50;;;;;;;10.57;3.25;;;22.00;99.90;;;;;;4972405;28;20078;-49
2022/05/16 09:54:30;;;;;;;10.52;3.55;;;21.80;99.90;;;;;;4973403;28;20163;-47
2022/05/16 09:57:12;;;;;;;9.55;3.58;;;21.70;99.90;;;;;;4956704;28;20034;-46
2022/05/16 09:59:50;;;;;;;8.98;3.90;;;21.70;99.90;;;;;;4972866;28;21699;-47
2022/05/16 10:02:59;;;;;;;12.93;3.70;;;21.60;99.90;;;;;;4971767;28;20051;-47
2022/05/16 10:05:29;;;;;;;9.48;3.90;;;21.70;99.90;;;;;;4942174;28;20074;-46
2022/05/16 10:08:14;;;;;;;12.23;4.40;;;21.80;99.90;;;;;;4972234;28;20047;-47
2022/05/16 10:10:42;;;;;;;12.70;4.32;;;21.90;99.90;;;;;;4971537;28;20062;-47
2022/05/16 10:13:08;;;;;;;11.45;4.28;;;22.20;99.90;;;;;;4971563;28;20051;-50
2022/05/16 10:15:36;;;;;;;12.20;4.30;;;22.30;99.90;;;;;;4973062;28;20049;-47
2022/05/16 10:18:07;;;;;;;13.15;4.25;;;22.50;99.90;;;;;;4972883;28;20062;-49
2022/05/16 10:20:38;;;;;;;8.50;4.03;;;22.50;99.90;;;;;;4972710;28;20530;-49
2022/05/16 10:23:23;;;;;;;12.18;4.25;;;22.30;99.90;;;;;;4972485;28;20065;-49
2022/05/16 10:25:52;;;;;;;11.95;4.45;;;22.20;99.90;;;;;;4972590;28;20050;-48
2022/05/16 10:28:25;;;;;;;9.85;4.10;;;22.20;99.90;;;;;;4972642;28;20513;-50
2022/05/16 10:33:39;;;;;;;13.40;4.53;;;22.30;99.90;;;;;;4971792;28;20038;-49
2022/05/16 10:36:09;;;;;;;11.90;3.80;;;22.40;99.90;;;;;;4972029;28;20471;-46
2022/05/16 10:39:00;;;;;;;13.25;3.80;;;22.50;99.90;;;;;;4972450;28;20172;-51
2022/05/16 10:41:32;;;;;;;12.57;3.75;;;22.60;99.90;;;;;;4969732;28;20462;-48
2022/05/16 10:44:12;;;;;;;7.68;3.08;;;22.70;99.90;;;;;;4972378;28;20440;-48
2022/05/16 10:46:42;;;;;;;9.63;3.33;;;22.80;99.90;;;;;;4970039;28;20048;-46
2022/05/16 10:49:16;;;;;;;9.75;3.38;;;22.90;99.90;;;;;;4972232;28;20043;-49
2022/05/16 10:51:47;;;;;;;8.52;3.63;;;23.00;99.90;;;;;;4969698;28;20086;-51
2022/05/16 10:54:18;;;;;;;10.25;3.58;;;23.00;99.90;;;;;;4971504;28;20054;-48
2022/05/16 10:57:24;;;;;;;11.55;3.75;;;23.00;99.90;;;;;;4972051;28;20471;-48
2022/05/16 11:00:06;;;;;;;11.88;3.95;;;23.10;99.90;;;;;;4958071;28;20047;-49
2022/05/16 11:02:34;;;;;;;8.68;3.47;;;23.20;99.90;;;;;;4969460;28;20101;-48
2022/05/16 11:05:28;;;;;;;10.77;4.00;;;23.10;99.90;;;;;;4971343;28;20476;-47
2022/05/16 11:08:14;;;;;;;10.93;4.15;;;23.20;99.90;;;;;;4972675;28;20043;-46
2022/05/16 11:10:52;;;;;;;13.32;3.63;;;23.10;99.90;;;;;;4973079;28;20039;-46
2022/05/16 11:13:36;;;;;;;10.27;4.18;;;23.20;99.90;;;;;;4971481;28;20039;-47
2022/05/16 11:16:09;;;;;;;;;;;23.20;99.90;;;;;;4973275;28;20038;-47
2022/05/16 11:18:50;;;;;;;8.07;3.00;;;23.30;99.90;;;;;;4972249;28;19925;-48
2022/05/16 11:21:40;;;;;;;9.85;3.47;;;23.30;99.90;;;;;;4972464;28;20034;-50
2022/05/16 11:24:32;;;;;;;9.00;3.35;;;23.30;99.90;;;;;;4972498;28;20038;-46
2022/05/16 11:27:22;;;;;;;11.18;3.58;;;23.40;99.90;;;;;;4959323;28;20097;-49
2022/05/16 11:29:57;;;;;;;7.60;3.40;;;23.30;99.90;;;;;;4970824;28;20394;-48
2022/05/16 11:33:07;;;;;;;9.82;4.13;;;23.20;99.90;;;;;;4971769;28;20089;-49
2022/05/16 11:35:45;;;;;;;11.75;4.13;;;23.20;99.90;;;;;;4914656;28;20047;-47
2022/05/16 11:38:35;;;;;;;10.48;4.13;;;23.30;99.90;;;;;;4971267;28;21810;-48
2022/05/16 11:41:38;;;;;;;12.27;4.80;;;23.20;99.90;;;;;;4971108;28;20150;-46
2022/05/16 11:44:27;;;;;;;9.65;4.75;;;23.20;99.90;;;;;;4954034;28;20054;-49
2022/05/16 11:47:15;;;;;;;11.57;4.65;;;23.30;99.90;;;;;;4971954;28;20101;-47
2022/05/16 11:49:44;;;;;;;9.50;4.90;;;23.40;99.90;;;;;;4972158;28;20453;-48
2022/05/16 11:52:30;;;;;;;8.00;4.78;;;23.50;99.90;;;;;;4972160;28;20472;-50
2022/05/16 12:00:55;;;;;;;11.73;5.13;;;23.60;99.90;;;;;;4954666;28;20035;-48
2022/05/16 12:03:22;;;;;;;13.00;6.13;;;23.80;99.90;;;;;;4972304;28;20125;-51
2022/05/16 12:05:51;;;;;;;9.35;5.20;;;23.80;99.90;;;;;;4972247;28;20479;-46
2022/05/16 12:08:25;;;;;;;10.70;5.43;;;23.90;99.90;;;;;;4971929;28;20043;-47
2022/05/16 12:11:03;;;;;;;11.60;6.00;;;24.10;99.90;;;;;;4971968;28;20034;-49
2022/05/16 12:13:34;;;;;;;10.40;5.32;;;24.30;99.90;;;;;;4972384;28;20094;-47
2022/05/16 12:16:27;;;;;;;12.77;5.85;;;24.40;99.90;;;;;;4972250;28;20126;-48
2022/05/16 12:19:27;;;;;;;14.60;5.80;;;24.30;99.90;;;;;;4972033;28;20039;-47
2022/05/16 12:21:58;;;;;;;9.68;5.57;;;24.30;99.90;;;;;;4972282;28;20039;-46
2022/05/16 12:24:30;;;;;;;11.15;5.60;;;24.10;99.90;;;;;;4954010;28;20050;-47
2022/05/16 12:27:16;;;;;;;12.55;5.38;;;24.00;99.90;;;;;;4971981;28;20053;-47
2022/05/16 12:29:50;;;;;;;9.55;5.90;;;24.10;99.90;;;;;;4971863;28;20031;-47
2022/05/16 12:32:31;;;;;;;11.52;5.72;;;24.10;99.90;;;;;;4971794;28;20038;-47
2022/05/16 12:35:15;;;;;;;10.40;6.20;;;23.90;99.90;;;;;;4971857;28;20494;-47
2022/05/16 12:37:41;;;;;;;12.25;6.35;;;24.00;99.90;;;;;;4972011;28;20047;-49
2022/05/16 12:40:16;;;;;;;11.63;5.82;;;24.10;99.90;;;;;;4971846;28;20039;-47
2022/05/16 12:42:53;;;;;;;8.95;5.78;;;24.10;99.90;;;;;;4972193;28;20416;-48
2022/05/16 12:45:22;;;;;;;14.77;6.07;;;24.10;99.90;;;;;;4971871;28;20043;-48
2022/05/16 12:48:01;;;;;;;16.58;6.78;;;24.20;99.90;;;;;;4972113;28;20039;-48
2022/05/16 12:51:05;;;;;;;10.75;5.80;;;24.20;99.90;;;;;;4972013;28;20117;-47
2022/05/16 12:53:43;;;;;;;16.60;7.60;;;24.70;99.90;;;;;;4950929;28;20128;-49
2022/05/16 12:56:24;;;;;;;12.40;6.85;;;25.00;99.90;;;;;;4970566;28;20046;-49
2022/05/16 12:59:20;;;;;;;12.35;8.15;;;25.50;99.90;;;;;;4972748;28;20042;-46
2022/05/16 13:01:54;;;;;;;13.18;8.40;;;25.50;99.90;;;;;;4975500;28;20390;-45
2022/05/16 13:04:57;;;;;;;14.80;8.90;;;25.50;99.40;;;;;;4957760;28;20039;-51
2022/05/16 13:07:41;;;;;;;14.50;7.85;;;25.60;99.60;;;;;;4971243;28;20038;-47
2022/05/16 13:10:12;;;;;;;;;;;25.90;99.70;;;;;;4974232;28;20042;-47
2022/05/16 13:12:44;;;;;;;15.38;8.43;;;26.00;98.90;;;;;;4956385;28;19922;-48
2022/05/16 13:15:27;;;;;;;13.93;8.80;;;26.50;99.50;;;;;;4973977;28;20042;-49
2022/05/16 13:17:58;;;;;;;15.10;9.15;;;26.30;98.70;;;;;;4973959;28;20053;-45
2022/05/16 13:20:32;;;;;;;16.67;9.05;;;26.30;98.60;;;;;;4974657;28;20122;-48
2022/05/16 13:22:58;;;;;;;12.93;8.15;;;26.30;98.20;;;;;;4948431;28;20050;-46
2022/05/16 13:25:26;;;;;;;14.88;8.65;;;25.80;97.80;;;;;;4973648;28;20035;-47
2022/05/16 13:30:43;;;;;;;11.68;7.38;;;25.10;98.60;;;;;;4973409;28;20044;-49
2022/05/16 13:33:29;;;;;;;12.77;6.78;;;25.10;99.20;;;;;;4973893;28;20035;-47
2022/05/16 13:35:54;;;;;;;13.45;6.57;;;25.00;99.50;;;;;;4973445;28;21377;-45
2022/05/16 13:38:20;;;;;;;12.77;5.85;;;24.90;99.60;;;;;;4956218;28;20050;-47
2022/05/16 13:40:48;;;;;;;16.10;6.32;;;24.80;99.70;;;;;;4973441;28;20042;-47